Time;durP1;ratioP1;P1;durP2;ratioP2;P2;SDS_P1;SDS_P2;PMS_P1;PMS_P2;Temp;Humidity;BMP_temperature;BMP_pressure;BME280_temperature;BME280_humidity;BME280_pressure;Samples;Min_cycle;Max_cycle;Signal;HPM_P1;HPM_P2
2023/08/21 00:00:53;;;;;;;5.25;1.83;;;19.40;99.90;;;;;;5056818;28;20180;-55
2023/08/21 00:03:19;;;;;;;6.20;1.92;;;19.40;99.90;;;;;;5056705;28;20258;-55
2023/08/21 00:05:44;;;;;;;5.85;1.60;;;19.50;99.90;;;;;;5056618;28;20195;-55
2023/08/21 00:08:10;;;;;;;5.85;1.80;;;19.50;99.90;;;;;;5056797;28;20211;-55
2023/08/21 00:10:38;;;;;;;4.15;1.65;;;19.60;99.90;;;;;;5056798;28;20191;-55
2023/08/21 00:13:05;;;;;;;4.30;1.58;;;19.60;99.90;;;;;;5056482;28;20563;-56
2023/08/21 00:15:31;;;;;;;5.35;1.90;;;19.70;99.90;;;;;;5056612;28;20180;-55
2023/08/21 00:17:56;;;;;;;4.07;1.73;;;19.60;99.90;;;;;;5056757;28;20182;-55
2023/08/21 00:20:22;;;;;;;4.50;1.70;;;19.50;99.90;;;;;;5056153;28;20227;-54
2023/08/21 00:22:48;;;;;;;4.38;1.67;;;19.50;99.90;;;;;;5056372;28;20197;-55
2023/08/21 00:25:13;;;;;;;6.78;2.25;;;19.70;99.90;;;;;;5056373;28;20272;-54
2023/08/21 00:27:39;;;;;;;5.47;2.25;;;19.70;99.90;;;;;;5056330;28;20179;-55
2023/08/21 00:30:05;;;;;;;5.55;2.28;;;19.50;99.90;;;;;;5056141;28;20214;-55
2023/08/21 00:32:31;;;;;;;5.65;2.10;;;19.30;99.90;;;;;;5055964;28;20195;-55
2023/08/21 00:34:56;;;;;;;4.03;1.90;;;19.30;99.90;;;;;;5056121;28;20632;-55
2023/08/21 00:37:22;;;;;;;6.28;2.38;;;19.40;99.90;;;;;;5055974;28;20175;-56
2023/08/21 00:39:48;;;;;;;5.53;2.00;;;19.40;99.90;;;;;;5056219;28;20607;-55
2023/08/21 00:42:13;;;;;;;5.15;2.30;;;19.40;99.90;;;;;;5055876;28;20183;-55
2023/08/21 00:44:39;;;;;;;3.72;1.85;;;19.10;99.90;;;;;;5055785;28;20199;-55
2023/08/21 00:47:05;;;;;;;4.13;2.15;;;19.10;99.90;;;;;;5056041;28;20206;-56
2023/08/21 00:49:31;;;;;;;6.07;1.95;;;19.30;99.90;;;;;;5055800;28;20213;-56
2023/08/21 00:51:56;;;;;;;6.18;2.60;;;19.40;99.90;;;;;;5055757;28;20648;-54
2023/08/21 00:54:22;;;;;;;6.65;2.30;;;19.30;99.90;;;;;;5055891;28;20186;-56
2023/08/21 00:56:48;;;;;;;6.00;2.00;;;19.30;99.90;;;;;;5055806;28;20175;-55
2023/08/21 00:59:14;;;;;;;7.15;2.65;;;19.00;99.90;;;;;;5055803;28;20187;-56
2023/08/21 01:01:40;;;;;;;4.75;2.00;;;19.10;99.90;;;;;;5055632;28;20182;-56
2023/08/21 01:04:06;;;;;;;5.50;2.40;;;19.00;99.90;;;;;;5054982;28;20258;-55
2023/08/21 01:06:32;;;;;;;4.50;2.28;;;18.90;99.90;;;;;;5055405;28;20294;-55
2023/08/21 01:09:08;;;;;;;4.90;2.33;;;18.90;99.90;;;;;;5055880;28;20187;-55
2023/08/21 01:11:37;;;;;;;5.90;2.30;;;19.00;99.90;;;;;;5055938;28;20212;-55
2023/08/21 01:14:20;;;;;;;8.18;2.33;;;18.90;99.90;;;;;;5055375;28;20168;-54
2023/08/21 01:16:52;;;;;;;6.00;2.40;;;18.90;99.90;;;;;;5055224;28;20168;-55
2023/08/21 01:19:42;;;;;;;4.32;1.88;;;18.90;99.90;;;;;;5055400;28;20229;-55
2023/08/21 01:22:08;;;;;;;6.20;2.40;;;19.00;99.90;;;;;;5052410;28;20203;-53
2023/08/21 01:24:34;;;;;;;6.35;2.60;;;19.00;99.90;;;;;;5055048;28;20294;-53
2023/08/21 01:27:00;;;;;;;5.43;2.17;;;18.90;99.90;;;;;;5055038;28;20183;-55
2023/08/21 01:29:26;;;;;;;5.32;2.00;;;18.90;99.90;;;;;;5054919;28;20182;-54
2023/08/21 01:32:09;;;;;;;6.28;2.08;;;18.90;99.90;;;;;;5054862;28;20537;-55
2023/08/21 01:34:37;;;;;;;4.50;2.25;;;18.80;99.90;;;;;;5054916;28;20255;-55
2023/08/21 01:37:04;;;;;;;4.68;2.15;;;18.80;99.90;;;;;;5054859;28;20179;-54
2023/08/21 01:39:29;;;;;;;6.22;2.28;;;18.70;99.90;;;;;;5054981;28;20175;-56
2023/08/21 01:41:56;;;;;;;4.35;1.88;;;18.70;99.90;;;;;;5054678;28;20179;-56
2023/08/21 01:44:22;;;;;;;6.40;2.38;;;18.70;99.90;;;;;;5054877;28;20187;-55
2023/08/21 01:46:48;;;;;;;4.85;2.13;;;18.80;99.90;;;;;;5054826;28;20179;-55
2023/08/21 01:49:13;;;;;;;5.57;2.17;;;18.80;99.90;;;;;;5054874;28;20182;-55
2023/08/21 01:51:39;;;;;;;6.10;2.20;;;18.80;99.90;;;;;;5054747;28;20167;-55
2023/08/21 01:54:04;;;;;;;5.70;2.38;;;18.80;99.90;;;;;;5054725;28;20229;-55
2023/08/21 01:56:30;;;;;;;5.55;2.00;;;18.80;99.90;;;;;;5054487;28;20690;-55
2023/08/21 01:58:56;;;;;;;4.85;2.25;;;18.90;99.90;;;;;;5054722;28;20171;-56
2023/08/21 02:01:23;;;;;;;6.28;2.05;;;18.90;99.90;;;;;;5053359;28;20187;-55
2023/08/21 02:03:48;;;;;;;3.75;2.00;;;18.90;99.90;;;;;;5054676;28;20258;-55
2023/08/21 02:06:14;;;;;;;4.95;2.10;;;18.90;99.90;;;;;;5054432;28;20304;-56
2023/08/21 02:08:40;;;;;;;5.15;2.15;;;19.00;99.90;;;;;;5054587;28;20715;-55
2023/08/21 02:11:05;;;;;;;4.55;2.20;;;19.00;99.90;;;;;;5054233;28;20571;-55
2023/08/21 02:13:32;;;;;;;6.15;2.38;;;18.90;99.90;;;;;;5054121;28;20183;-55
2023/08/21 02:15:58;;;;;;;5.38;2.03;;;18.90;99.90;;;;;;5053662;28;20266;-56
2023/08/21 02:18:24;;;;;;;4.03;1.80;;;18.90;99.90;;;;;;5054105;28;20274;-54
2023/08/21 02:20:50;;;;;;;5.95;2.30;;;18.90;99.90;;;;;;5054295;28;20174;-59
2023/08/21 02:23:16;;;;;;;5.40;2.17;;;18.80;99.90;;;;;;5054131;28;20643;-55
2023/08/21 02:25:42;;;;;;;3.80;2.28;;;18.80;99.90;;;;;;5053855;28;20207;-54
2023/08/21 02:28:08;;;;;;;5.32;2.20;;;18.90;99.90;;;;;;5053822;28;20620;-54
2023/08/21 02:30:33;;;;;;;4.53;2.30;;;18.90;99.90;;;;;;5054082;28;20195;-56
2023/08/21 02:32:59;;;;;;;7.38;2.30;;;18.90;99.90;;;;;;5053851;28;20203;-55
2023/08/21 02:35:25;;;;;;;5.57;2.33;;;18.80;99.90;;;;;;5053937;28;20187;-56
2023/08/21 02:37:50;;;;;;;5.25;2.30;;;18.80;99.90;;;;;;5053932;28;20175;-55
2023/08/21 02:40:16;;;;;;;3.38;2.33;;;18.80;99.90;;;;;;5053774;28;20505;-55
2023/08/21 02:42:42;;;;;;;4.97;2.30;;;18.80;99.90;;;;;;5053618;28;20637;-55
2023/08/21 02:45:08;;;;;;;4.05;2.15;;;18.70;99.90;;;;;;5053776;28;20280;-54
2023/08/21 02:47:36;;;;;;;4.70;2.38;;;18.70;99.90;;;;;;5053745;28;20179;-53
2023/08/21 02:50:06;;;;;;;5.18;2.20;;;18.70;99.90;;;;;;5053576;28;20194;-55
2023/08/21 02:52:33;;;;;;;6.10;2.45;;;18.70;99.90;;;;;;5053393;28;20202;-54
2023/08/21 02:54:59;;;;;;;4.82;2.22;;;18.70;99.90;;;;;;5052193;28;20540;-55
2023/08/21 02:57:26;;;;;;;6.20;2.33;;;18.70;99.90;;;;;;5053667;28;20171;-55
2023/08/21 02:59:51;;;;;;;4.80;2.40;;;18.70;99.90;;;;;;5053552;28;20225;-56
2023/08/21 03:02:18;;;;;;;4.53;2.05;;;18.70;99.90;;;;;;5053539;28;20254;-55
2023/08/21 03:04:43;;;;;;;5.72;2.22;;;18.60;99.90;;;;;;5053350;28;20207;-55
2023/08/21 03:07:09;;;;;;;6.13;2.70;;;18.70;99.90;;;;;;5053311;28;20175;-55
2023/08/21 03:09:39;;;;;;;3.47;2.17;;;18.70;99.90;;;;;;5053283;28;20583;-55
2023/08/21 03:12:05;;;;;;;7.70;2.50;;;18.70;99.90;;;;;;5053387;28;20182;-54
2023/08/21 03:14:30;;;;;;;6.05;2.47;;;18.60;99.90;;;;;;5053353;28;20179;-55
2023/08/21 03:16:56;;;;;;;5.65;2.40;;;18.60;99.90;;;;;;5053142;28;20175;-55
2023/08/21 03:19:22;;;;;;;5.03;2.25;;;18.60;99.90;;;;;;5052029;28;20234;-55
2023/08/21 03:21:48;;;;;;;4.25;2.33;;;18.60;99.90;;;;;;5053099;28;20189;-56
2023/08/21 03:24:14;;;;;;;5.47;2.42;;;18.60;99.90;;;;;;5052970;28;20258;-56
2023/08/21 03:26:40;;;;;;;3.45;2.35;;;18.60;99.90;;;;;;5054871;28;20233;-55
2023/08/21 03:29:05;;;;;;;6.22;2.47;;;18.70;99.90;;;;;;5059843;28;20282;-55
2023/08/21 03:31:31;;;;;;;5.47;2.40;;;18.60;99.90;;;;;;5059838;28;20206;-56
2023/08/21 03:33:57;;;;;;;5.70;2.50;;;18.60;99.90;;;;;;5059682;28;20240;-56
2023/08/21 03:36:31;;;;;;;6.07;2.63;;;18.60;99.90;;;;;;5059678;28;20177;-55
2023/08/21 03:39:00;;;;;;;5.70;2.15;;;18.50;99.90;;;;;;5059557;28;20225;-55
2023/08/21 03:41:26;;;;;;;4.95;2.65;;;18.50;99.90;;;;;;5059768;28;20652;-54
2023/08/21 03:43:53;;;;;;;6.82;2.50;;;18.50;99.90;;;;;;5059711;28;20251;-56
2023/08/21 03:46:18;;;;;;;5.78;2.20;;;18.40;99.90;;;;;;5059695;28;20255;-56
2023/08/21 03:48:44;;;;;;;5.20;2.40;;;18.50;99.90;;;;;;5059686;28;20258;-56
2023/08/21 03:51:09;;;;;;;4.78;2.35;;;18.30;99.90;;;;;;5059640;28;20178;-55
2023/08/21 03:53:35;;;;;;;8.75;2.72;;;18.20;99.90;;;;;;5059460;28;20182;-56
2023/08/21 03:56:01;;;;;;;5.13;2.40;;;18.20;99.90;;;;;;5059400;28;20179;-54
2023/08/21 03:58:27;;;;;;;6.53;2.50;;;18.20;99.90;;;;;;5057442;28;20267;-55
2023/08/21 04:00:53;;;;;;;4.47;2.60;;;18.20;99.90;;;;;;5059499;28;20175;-56
2023/08/21 04:03:19;;;;;;;5.35;2.45;;;18.20;99.90;;;;;;5059485;28;20194;-56
2023/08/21 04:05:45;;;;;;;4.97;2.40;;;18.20;99.90;;;;;;5057496;28;20676;-56
2023/08/21 04:08:10;;;;;;;5.78;2.63;;;18.10;99.90;;;;;;5059341;28;20229;-55
2023/08/21 04:10:36;;;;;;;4.07;2.33;;;18.00;99.90;;;;;;5057858;28;20225;-56
2023/08/21 04:13:02;;;;;;;8.02;2.25;;;18.00;99.90;;;;;;5059494;28;20659;-56
2023/08/21 04:15:28;;;;;;;5.30;2.85;;;18.00;99.90;;;;;;5059503;28;20221;-55
2023/08/21 04:17:53;;;;;;;6.90;2.60;;;17.90;99.90;;;;;;5059421;28;20182;-56
2023/08/21 04:20:22;;;;;;;7.57;2.70;;;17.80;99.90;;;;;;5059637;28;20258;-56
2023/08/21 04:22:49;;;;;;;8.50;3.03;;;17.90;99.90;;;;;;5059249;28;20170;-56
2023/08/21 04:25:15;;;;;;;6.25;2.40;;;17.90;99.90;;;;;;5059401;28;20675;-56
2023/08/21 04:27:42;;;;;;;6.28;2.85;;;17.90;99.90;;;;;;5059336;28;20171;-56
2023/08/21 04:30:08;;;;;;;5.28;2.45;;;17.90;99.90;;;;;;5059378;28;20186;-56
2023/08/21 04:32:34;;;;;;;6.05;2.45;;;17.90;99.90;;;;;;5059288;28;20544;-56
2023/08/21 04:35:00;;;;;;;9.32;2.70;;;18.00;99.90;;;;;;5059060;28;20179;-56
2023/08/21 04:37:25;;;;;;;6.03;2.78;;;18.00;99.90;;;;;;5059348;28;20175;-56
2023/08/21 04:39:52;;;;;;;5.10;2.42;;;18.10;99.90;;;;;;5055537;28;20203;-56
2023/08/21 04:42:18;;;;;;;6.70;2.90;;;18.10;99.90;;;;;;5055918;28;20171;-55
2023/08/21 04:44:43;;;;;;;5.47;2.53;;;18.10;99.90;;;;;;5055905;28;20253;-55
2023/08/21 04:47:23;;;;;;;7.07;2.83;;;18.10;99.90;;;;;;5055873;28;20183;-55
2023/08/21 04:49:50;;;;;;;9.10;2.80;;;18.10;99.90;;;;;;5055660;28;20171;-56
2023/08/21 04:52:16;;;;;;;6.28;2.63;;;18.10;99.90;;;;;;5055999;28;20593;-56
2023/08/21 04:54:42;;;;;;;7.43;2.90;;;18.10;99.90;;;;;;5054854;28;20270;-56
2023/08/21 04:57:08;;;;;;;5.78;2.83;;;18.00;99.90;;;;;;5055922;28;20176;-57
2023/08/21 04:59:34;;;;;;;7.57;3.15;;;17.90;99.90;;;;;;5054721;28;20182;-56
2023/08/21 05:02:00;;;;;;;11.20;3.10;;;18.00;99.90;;;;;;5055886;28;20175;-56
2023/08/21 05:04:26;;;;;;;8.27;2.83;;;17.90;99.90;;;;;;5051810;28;20182;-53
2023/08/21 05:06:52;;;;;;;6.32;2.60;;;17.80;99.90;;;;;;5054567;28;20266;-52
2023/08/21 05:09:17;;;;;;;8.18;3.30;;;17.90;99.90;;;;;;5054218;28;20266;-50
2023/08/21 05:11:43;;;;;;;5.75;3.10;;;17.80;99.90;;;;;;5055382;28;20586;-53
2023/08/21 05:14:09;;;;;;;6.72;2.80;;;17.80;99.90;;;;;;5054163;28;20838;-54
2023/08/21 05:16:35;;;;;;;6.13;2.85;;;17.80;99.90;;;;;;5054711;28;20644;-52
2023/08/21 05:19:00;;;;;;;8.13;3.00;;;17.80;99.90;;;;;;5054431;28;20211;-53
2023/08/21 05:21:26;;;;;;;6.90;3.17;;;17.80;99.90;;;;;;5050745;28;20594;-53
2023/08/21 05:23:52;;;;;;;8.25;3.28;;;17.80;99.90;;;;;;5054518;28;20603;-52
2023/08/21 05:26:18;;;;;;;7.03;3.38;;;17.80;99.90;;;;;;5055079;28;20231;-54
2023/08/21 05:28:44;;;;;;;6.45;2.97;;;17.90;99.90;;;;;;5055107;28;20167;-49
2023/08/21 05:31:09;;;;;;;7.63;3.83;;;18.00;99.90;;;;;;5055074;28;20248;-50
2023/08/21 05:33:35;;;;;;;7.65;3.05;;;18.00;99.90;;;;;;5054947;28;20569;-53
2023/08/21 05:36:01;;;;;;;7.43;3.10;;;18.10;99.90;;;;;;5054927;28;20314;-53
2023/08/21 05:38:26;;;;;;;9.32;3.47;;;18.20;99.90;;;;;;5055094;28;20202;-53
2023/08/21 05:40:52;;;;;;;6.57;3.58;;;18.10;99.90;;;;;;5054985;28;20169;-54
2023/08/21 05:43:18;;;;;;;9.77;3.90;;;18.10;99.90;;;;;;5054958;28;20203;-51
2023/08/21 05:45:43;;;;;;;5.80;3.30;;;18.10;99.90;;;;;;5054763;28;20205;-53
2023/08/21 05:48:09;;;;;;;6.05;3.50;;;18.30;99.90;;;;;;5054963;28;20175;-51
2023/08/21 05:50:36;;;;;;;9.90;4.10;;;18.40;99.90;;;;;;5053465;28;20182;-53
2023/08/21 05:53:03;;;;;;;8.38;4.03;;;18.40;99.90;;;;;;5054851;28;20183;-54
2023/08/21 05:55:29;;;;;;;9.82;4.47;;;18.40;99.90;;;;;;5053498;28;20179;-52
2023/08/21 05:57:55;;;;;;;11.43;4.07;;;18.40;99.90;;;;;;5054667;28;20175;-49
2023/08/21 06:00:20;;;;;;;8.75;4.20;;;18.40;99.90;;;;;;5054510;28;20171;-53
2023/08/21 06:02:46;;;;;;;8.60;4.25;;;18.50;99.90;;;;;;5054384;28;20171;-52
2023/08/21 06:05:12;;;;;;;8.30;3.83;;;18.70;99.90;;;;;;5054516;28;20289;-51
2023/08/21 06:07:37;;;;;;;9.40;3.95;;;18.90;99.90;;;;;;5054576;28;20190;-54
2023/08/21 06:10:04;;;;;;;7.32;3.92;;;19.10;99.90;;;;;;5054569;28;20175;-52
2023/08/21 06:12:30;;;;;;;10.10;4.10;;;19.20;99.90;;;;;;5054318;28;20532;-54
2023/08/21 06:14:56;;;;;;;11.27;4.95;;;19.40;99.90;;;;;;5054194;28;20175;-52
2023/08/21 06:17:22;;;;;;;8.38;4.03;;;19.50;99.90;;;;;;5054090;28;20182;-51
2023/08/21 06:19:47;;;;;;;9.07;4.45;;;19.60;99.90;;;;;;5053935;28;20231;-52
2023/08/21 06:22:13;;;;;;;13.60;4.75;;;19.70;99.90;;;;;;5054038;28;20174;-52
2023/08/21 06:24:39;;;;;;;9.70;4.38;;;19.70;99.90;;;;;;5054045;28;20203;-53
2023/08/21 06:27:04;;;;;;;11.25;4.40;;;19.90;99.90;;;;;;5054106;28;20179;-53
2023/08/21 06:29:30;;;;;;;10.40;4.55;;;20.00;99.90;;;;;;5053998;28;20254;-52
2023/08/21 06:31:56;;;;;;;10.57;4.95;;;20.00;99.90;;;;;;5053863;28;20536;-54
2023/08/21 06:34:21;;;;;;;8.65;4.88;;;20.10;99.90;;;;;;5054066;28;20199;-49
2023/08/21 06:36:47;;;;;;;13.60;4.82;;;20.20;99.90;;;;;;5053807;28;20176;-51
2023/08/21 06:39:12;;;;;;;8.35;4.97;;;20.20;99.90;;;;;;5054012;28;20555;-52
2023/08/21 06:41:38;;;;;;;11.98;5.20;;;20.20;99.90;;;;;;5054145;28;20172;-54
2023/08/21 06:44:04;;;;;;;11.15;5.45;;;20.30;99.90;;;;;;5053715;28;20233;-52
2023/08/21 06:46:30;;;;;;;14.88;5.80;;;20.30;99.90;;;;;;5053533;28;20230;-54
2023/08/21 06:48:55;;;;;;;12.45;5.55;;;20.40;99.90;;;;;;5053509;28;20179;-53
2023/08/21 06:51:21;;;;;;;9.82;5.03;;;20.50;99.90;;;;;;5053730;28;20175;-49
2023/08/21 06:53:46;;;;;;;12.15;5.65;;;20.50;99.90;;;;;;5053825;28;20202;-53
2023/08/21 06:56:12;;;;;;;11.20;5.55;;;20.60;99.90;;;;;;5053592;28;20722;-52
2023/08/21 06:58:38;;;;;;;12.80;5.85;;;20.50;99.90;;;;;;5053469;28;20175;-53
2023/08/21 07:01:03;;;;;;;10.25;5.55;;;20.60;99.90;;;;;;5053143;28;20171;-50
2023/08/21 07:03:29;;;;;;;14.13;6.20;;;20.60;99.90;;;;;;5053263;28;20175;-53
2023/08/21 07:05:56;;;;;;;12.77;6.07;;;20.50;99.90;;;;;;5053607;28;20221;-54
2023/08/21 07:08:23;;;;;;;11.10;5.20;;;20.50;99.90;;;;;;5053429;28;20171;-53
2023/08/21 07:10:48;;;;;;;9.85;5.22;;;20.60;99.90;;;;;;5053489;28;20183;-51
2023/08/21 07:13:14;;;;;;;12.95;5.50;;;20.70;99.90;;;;;;5053251;28;20653;-53
2023/08/21 07:15:40;;;;;;;14.55;5.88;;;20.70;99.90;;;;;;5053127;28;20266;-53
2023/08/21 07:18:05;;;;;;;11.15;5.40;;;20.80;99.90;;;;;;5053402;28;20581;-52
2023/08/21 07:20:31;;;;;;;15.00;6.25;;;21.00;99.90;;;;;;5052917;28;20222;-54
2023/08/21 07:22:57;;;;;;;13.85;6.32;;;21.00;99.90;;;;;;5053208;28;20207;-53
2023/08/21 07:25:24;;;;;;;13.93;6.22;;;21.10;99.90;;;;;;5053030;28;20359;-53
2023/08/21 07:27:50;;;;;;;11.65;6.68;;;21.00;99.90;;;;;;5053007;28;20552;-53
2023/08/21 07:30:17;;;;;;;13.77;6.00;;;21.00;99.90;;;;;;5053025;28;20172;-50
2023/08/21 07:32:43;;;;;;;15.10;5.93;;;21.10;99.90;;;;;;5053427;28;20582;-51
2023/08/21 07:35:09;;;;;;;11.80;5.85;;;21.10;99.90;;;;;;5053074;28;20245;-53
2023/08/21 07:37:34;;;;;;;14.05;5.97;;;21.40;99.90;;;;;;5053142;28;20172;-51
2023/08/21 07:40:00;;;;;;;14.57;6.30;;;21.50;99.90;;;;;;5052997;28;20180;-50
2023/08/21 07:42:26;;;;;;;13.90;6.80;;;21.60;99.90;;;;;;5052914;28;20253;-52
2023/08/21 07:44:51;;;;;;;14.55;6.18;;;21.80;99.90;;;;;;5052828;28;20298;-53
2023/08/21 07:47:17;;;;;;;11.30;6.40;;;21.80;99.90;;;;;;5053232;28;20179;-52
2023/08/21 07:49:43;;;;;;;12.45;5.82;;;21.70;99.90;;;;;;5051794;28;20183;-52
2023/08/21 07:52:08;;;;;;;11.48;5.50;;;21.70;99.90;;;;;;5052910;28;20698;-51
2023/08/21 07:54:34;;;;;;;15.10;6.00;;;21.60;99.90;;;;;;5052958;28;20179;-52
2023/08/21 07:57:00;;;;;;;9.68;4.75;;;21.90;99.90;;;;;;5052894;28;20213;-55
2023/08/21 07:59:26;;;;;;;9.23;4.93;;;22.00;99.90;;;;;;5052679;28;20671;-51
2023/08/21 08:01:51;;;;;;;10.43;4.50;;;22.10;99.90;;;;;;5052936;28;20272;-52
2023/08/21 08:04:17;;;;;;;9.02;3.90;;;22.30;99.90;;;;;;5052884;28;20179;-53
2023/08/21 08:06:42;;;;;;;8.13;3.72;;;22.40;99.90;;;;;;5053002;28;20214;-54
2023/08/21 08:09:08;;;;;;;8.00;4.18;;;22.30;99.90;;;;;;5052800;28;20202;-52
2023/08/21 08:11:34;;;;;;;9.98;4.63;;;22.40;99.90;;;;;;5052731;28;20175;-53
2023/08/21 08:13:59;;;;;;;9.05;4.13;;;22.60;99.90;;;;;;5053959;28;20636;-51
2023/08/21 08:16:25;;;;;;;11.82;4.20;;;22.80;99.90;;;;;;5056358;28;20183;-53
2023/08/21 08:18:51;;;;;;;8.50;3.50;;;22.90;99.90;;;;;;5056708;28;20318;-50
2023/08/21 08:21:17;;;;;;;7.50;3.67;;;23.00;99.90;;;;;;5056446;28;20635;-50
2023/08/21 08:23:43;;;;;;;12.05;4.18;;;23.10;99.90;;;;;;5056489;28;20168;-52
2023/08/21 08:26:08;;;;;;;11.70;4.10;;;23.10;99.90;;;;;;5056195;28;20214;-53
2023/08/21 08:28:35;;;;;;;7.40;3.47;;;23.20;99.90;;;;;;5056237;28;20187;-54
2023/08/21 08:31:00;;;;;;;7.55;3.78;;;23.40;99.90;;;;;;5056052;28;20179;-53
2023/08/21 08:33:26;;;;;;;9.27;4.15;;;23.40;99.90;;;;;;5056035;28;20577;-53
2023/08/21 08:35:52;;;;;;;10.95;4.20;;;23.40;99.90;;;;;;5056211;28;20183;-52
2023/08/21 08:38:19;;;;;;;7.10;3.50;;;23.30;99.90;;;;;;5056082;28;20171;-53
2023/08/21 08:40:49;;;;;;;9.48;3.90;;;23.10;99.90;;;;;;5056068;28;20528;-53
2023/08/21 08:43:15;;;;;;;12.35;4.10;;;23.30;99.90;;;;;;5055989;28;20582;-52
2023/08/21 08:45:41;;;;;;;13.02;3.90;;;23.50;99.90;;;;;;5055978;28;20215;-54
2023/08/21 08:48:07;;;;;;;10.15;3.50;;;23.60;99.90;;;;;;5056014;28;20190;-54
2023/08/21 08:50:34;;;;;;;8.15;3.25;;;23.80;99.90;;;;;;5055991;28;20183;-51
2023/08/21 08:53:01;;;;;;;8.73;3.35;;;24.00;99.90;;;;;;5055802;28;20210;-54
2023/08/21 08:55:27;;;;;;;9.30;3.28;;;23.80;99.90;;;;;;5055756;28;20298;-54
2023/08/21 08:57:53;;;;;;;9.20;3.22;;;23.80;99.90;;;;;;5054573;28;20254;-53
2023/08/21 09:00:20;;;;;;;4.40;2.72;;;23.90;99.90;;;;;;5055516;28;20266;-52
2023/08/21 09:02:46;;;;;;;6.53;2.90;;;23.90;99.90;;;;;;5055737;28;20174;-49
2023/08/21 09:05:12;;;;;;;7.32;3.35;;;23.90;99.90;;;;;;5055544;28;20207;-53
2023/08/21 09:07:38;;;;;;;7.35;3.05;;;24.00;99.90;;;;;;5055544;28;20184;-54
2023/08/21 09:10:12;;;;;;;8.82;2.90;;;23.80;99.90;;;;;;5054296;28;20175;-51
2023/08/21 09:12:38;;;;;;;13.35;3.72;;;23.80;99.90;;;;;;5055408;28;20172;-53
2023/08/21 09:15:08;;;;;;;11.90;3.30;;;24.00;99.90;;;;;;5055555;28;20183;-51
2023/08/21 09:17:34;;;;;;;8.75;3.30;;;24.30;99.90;;;;;;5055401;28;20258;-53
2023/08/21 09:20:07;;;;;;;9.07;3.17;;;24.40;99.90;;;;;;5053832;28;20222;-54
2023/08/21 09:22:33;;;;;;;9.10;3.00;;;24.40;99.90;;;;;;5055186;28;20175;-53
2023/08/21 09:25:10;;;;;;;9.65;3.40;;;24.30;99.90;;;;;;5054830;28;20207;-53
2023/08/21 09:27:40;;;;;;;10.07;3.30;;;24.60;99.90;;;;;;5055307;28;20181;-54
2023/08/21 09:30:09;;;;;;;8.32;3.10;;;24.50;99.90;;;;;;5055245;28;20178;-53
2023/08/21 09:32:52;;;;;;;8.45;3.40;;;24.40;99.90;;;;;;5055079;28;20229;-52
2023/08/21 09:35:17;;;;;;;8.77;3.40;;;24.50;99.90;;;;;;5055089;28;20179;-54
2023/08/21 09:37:47;;;;;;;7.10;2.88;;;24.50;99.90;;;;;;5054852;28;20198;-50
2023/08/21 09:40:12;;;;;;;9.48;3.60;;;24.50;99.90;;;;;;5055057;28;20233;-51
2023/08/21 09:42:42;;;;;;;6.13;2.72;;;24.40;99.90;;;;;;5055167;28;20254;-52
2023/08/21 09:45:08;;;;;;;10.60;3.42;;;24.10;99.90;;;;;;5054769;28;20252;-53
2023/08/21 09:47:34;;;;;;;6.28;2.92;;;24.20;99.90;;;;;;5054821;28;20183;-53
2023/08/21 09:50:00;;;;;;;7.90;2.63;;;24.60;99.90;;;;;;5054669;28;20194;-53
2023/08/21 09:52:26;;;;;;;5.13;2.38;;;24.70;99.90;;;;;;5054573;28;20172;-53
2023/08/21 09:54:56;;;;;;;5.65;1.77;;;25.00;99.90;;;;;;5054862;28;20233;-53
2023/08/21 09:57:23;;;;;;;5.43;1.63;;;25.10;99.90;;;;;;5054539;28;20168;-51
2023/08/21 09:59:53;;;;;;;5.15;2.13;;;25.20;99.90;;;;;;5054594;28;20509;-52
2023/08/21 10:02:20;;;;;;;4.70;2.25;;;25.30;99.90;;;;;;5053178;28;20536;-52
2023/08/21 10:04:48;;;;;;;5.63;2.33;;;25.30;99.90;;;;;;5054177;28;20199;-52
2023/08/21 10:07:16;;;;;;;9.25;2.72;;;25.30;99.90;;;;;;5054524;28;20183;-51
2023/08/21 10:09:42;;;;;;;5.57;2.30;;;25.40;99.90;;;;;;5054422;28;20266;-53
2023/08/21 10:12:14;;;;;;;7.82;2.80;;;25.50;99.90;;;;;;5054318;28;20191;-53
2023/08/21 10:14:41;;;;;;;3.00;1.83;;;25.70;99.90;;;;;;5054232;28;20182;-50
2023/08/21 10:17:08;;;;;;;4.70;1.60;;;25.70;99.90;;;;;;5054161;28;20171;-55
2023/08/21 10:19:35;;;;;;;4.35;1.50;;;25.70;99.90;;;;;;5053835;28;20259;-52
2023/08/21 10:22:03;;;;;;;4.13;1.50;;;25.70;99.90;;;;;;5054239;28;20172;-53
2023/08/21 10:24:35;;;;;;;6.82;1.98;;;25.70;99.90;;;;;;5053888;28;20183;-51
2023/08/21 10:27:00;;;;;;;5.57;2.25;;;25.70;99.90;;;;;;5054031;28;20179;-53
2023/08/21 10:29:26;;;;;;;5.53;2.03;;;25.90;99.90;;;;;;5053989;28;20179;-51
2023/08/21 10:32:03;;;;;;;6.78;2.10;;;25.90;99.90;;;;;;5053700;28;20179;-53
2023/08/21 10:34:37;;;;;;;5.60;2.40;;;26.00;99.90;;;;;;5053757;28;20555;-52
2023/08/21 10:37:07;;;;;;;6.28;2.67;;;26.20;99.90;;;;;;5053188;28;20175;-53
2023/08/21 10:39:35;;;;;;;7.10;3.00;;;26.30;99.90;;;;;;5053718;28;20180;-53
2023/08/21 10:42:14;;;;;;;5.95;2.35;;;26.50;99.90;;;;;;5053734;28;20544;-53
2023/08/21 10:44:59;;;;;;;5.85;2.25;;;26.50;99.90;;;;;;5053734;28;20171;-54
2023/08/21 10:47:28;;;;;;;5.75;2.17;;;26.50;99.90;;;;;;5053761;28;20560;-54
2023/08/21 10:49:55;;;;;;;6.72;2.75;;;26.50;99.90;;;;;;5053763;28;20171;-52
2023/08/21 10:52:27;;;;;;;4.68;2.70;;;26.60;99.90;;;;;;5053492;28;20186;-52
2023/08/21 10:55:00;;;;;;;7.47;2.70;;;26.60;99.90;;;;;;5053463;28;20176;-52
2023/08/21 10:57:28;;;;;;;5.88;2.15;;;26.40;99.90;;;;;;5052351;28;20531;-51
2023/08/21 10:59:58;;;;;;;5.10;2.33;;;26.40;99.90;;;;;;5053562;28;20266;-53
2023/08/21 11:02:26;;;;;;;7.32;2.65;;;26.10;99.90;;;;;;5053371;28;20225;-53
2023/08/21 11:04:52;;;;;;;5.35;2.50;;;26.30;99.90;;;;;;5053210;28;20537;-53
2023/08/21 11:07:18;;;;;;;5.75;2.35;;;26.20;99.90;;;;;;5053237;28;20171;-53
2023/08/21 11:09:44;;;;;;;4.43;2.40;;;26.10;99.90;;;;;;5053169;28;20222;-51
2023/08/21 11:12:13;;;;;;;5.40;2.72;;;25.80;99.90;;;;;;5053228;28;20583;-53
2023/08/21 11:14:39;;;;;;;7.57;2.40;;;25.60;99.90;;;;;;5053322;28;20654;-52
2023/08/21 11:17:05;;;;;;;4.10;2.30;;;25.70;99.90;;;;;;5053281;28;20167;-53
2023/08/21 11:19:32;;;;;;;5.40;2.28;;;25.50;99.90;;;;;;5053305;28;20252;-53
2023/08/21 11:22:03;;;;;;;4.28;2.17;;;25.70;99.90;;;;;;5053108;28;20183;-53
2023/08/21 11:24:39;;;;;;;5.82;2.38;;;25.90;99.90;;;;;;5053312;28;20175;-53
2023/08/21 11:27:05;;;;;;;4.07;2.13;;;25.90;99.90;;;;;;5053267;28;20182;-52
2023/08/21 11:29:38;;;;;;;2.95;1.80;;;26.10;99.90;;;;;;5053363;28;20180;-53
2023/08/21 11:32:17;;;;;;;4.00;1.67;;;26.40;99.90;;;;;;5052973;28;20633;-53
2023/08/21 11:34:54;;;;;;;3.25;1.38;;;26.50;99.90;;;;;;5052982;28;20181;-53
2023/08/21 11:37:25;;;;;;;4.15;1.40;;;26.50;99.90;;;;;;5053247;28;20610;-52
2023/08/21 11:39:52;;;;;;;4.72;1.83;;;26.50;99.90;;;;;;5053125;28;20168;-52
2023/08/21 11:42:20;;;;;;;5.22;1.85;;;26.30;99.90;;;;;;5052993;28;20711;-52
2023/08/21 11:44:54;;;;;;;6.15;1.58;;;26.20;99.90;;;;;;5052847;28;20203;-53
2023/08/21 11:47:22;;;;;;;4.57;1.58;;;26.40;99.90;;;;;;5052315;28;20580;-51
2023/08/21 11:49:52;;;;;;;6.25;1.52;;;26.30;99.90;;;;;;5056954;28;20202;-53
2023/08/21 11:52:27;;;;;;;3.33;1.50;;;26.30;99.90;;;;;;5057058;28;20174;-50
2023/08/21 11:54:54;;;;;;;2.28;1.25;;;26.30;99.90;;;;;;5056821;28;20192;-52
2023/08/21 11:57:20;;;;;;;6.45;1.73;;;26.50;99.90;;;;;;5055547;28;20506;-51
2023/08/21 11:59:53;;;;;;;2.97;1.50;;;26.70;99.90;;;;;;5056700;28;20651;-51
2023/08/21 12:02:23;;;;;;;4.40;1.70;;;26.90;99.90;;;;;;5057199;28;20175;-53
2023/08/21 12:05:02;;;;;;;2.40;1.60;;;26.80;99.90;;;;;;5056798;28;20223;-50
2023/08/21 12:07:27;;;;;;;3.70;2.05;;;26.80;99.90;;;;;;5056721;28;20211;-51
2023/08/21 12:09:53;;;;;;;4.20;1.75;;;26.30;99.90;;;;;;5056532;28;20206;-52
2023/08/21 12:12:19;;;;;;;10.02;1.70;;;26.20;99.90;;;;;;5056546;28;20179;-52
2023/08/21 12:14:45;;;;;;;7.40;2.28;;;26.30;99.90;;;;;;5057017;28;20179;-51
2023/08/21 12:17:11;;;;;;;3.05;1.50;;;26.50;99.90;;;;;;5055328;28;20175;-51
2023/08/21 12:19:37;;;;;;;3.72;1.50;;;26.40;99.90;;;;;;5056597;28;20702;-50
2023/08/21 12:22:03;;;;;;;4.63;1.50;;;26.00;99.90;;;;;;5055336;28;20266;-48
2023/08/21 12:24:28;;;;;;;2.90;1.48;;;26.20;99.90;;;;;;5056105;28;20191;-52
2023/08/21 12:26:55;;;;;;;2.95;1.50;;;26.30;99.90;;;;;;5056434;28;20585;-53
2023/08/21 12:29:21;;;;;;;2.17;1.23;;;26.30;99.90;;;;;;5056455;28;20216;-52
2023/08/21 12:31:47;;;;;;;4.32;1.42;;;26.40;99.90;;;;;;5056779;28;20172;-52
2023/08/21 12:34:13;;;;;;;3.33;1.23;;;26.50;99.90;;;;;;5056111;28;20626;-53
2023/08/21 12:36:39;;;;;;;3.90;1.10;;;26.50;99.90;;;;;;5056217;28;20219;-51
2023/08/21 12:39:05;;;;;;;4.00;1.52;;;26.60;99.90;;;;;;5056136;28;20190;-53
2023/08/21 12:41:35;;;;;;;4.22;1.33;;;26.60;99.90;;;;;;5056012;28;20183;-50
2023/08/21 12:44:02;;;;;;;8.43;1.50;;;26.60;99.90;;;;;;5056207;28;20167;-54